createdAt,value
2018-03-20T00:00:27.065Z,93605.55
2018-03-20T00:02:53.975Z,93608.23
2018-03-20T00:05:20.888Z,93607.06
2018-03-20T00:07:47.811Z,93599.16
2018-03-20T00:10:14.739Z,93605.12
2018-03-20T00:12:41.662Z,93606.46
2018-03-20T00:15:08.597Z,93604.33
2018-03-20T00:17:35.516Z,93594.92
2018-03-20T00:20:02.450Z,93597.22
2018-03-20T00:22:29.360Z,93599.67
2018-03-20T00:24:56.300Z,93601.25
2018-03-20T00:27:23.223Z,93603.15
2018-03-20T00:29:50.140Z,93601.02
2018-03-20T00:32:17.059Z,93591.22
2018-03-20T00:34:43.979Z,93597.18
2018-03-20T00:37:10.897Z,93597.18
2018-03-20T00:39:37.818Z,93595.44
2018-03-20T00:42:04.772Z,93593.28
2018-03-20T00:44:31.698Z,93589.02
2018-03-20T00:46:58.627Z,93590.59
2018-03-20T00:49:25.559Z,93582.70
2018-03-20T00:51:52.484Z,93572.91
2018-03-20T00:54:19.407Z,93582.14
2018-03-20T00:56:46.328Z,93579.45
2018-03-20T00:59:13.278Z,93572.91
2018-03-20T01:01:40.205Z,93576.37
2018-03-20T01:04:07.123Z,93582.70
2018-03-20T01:06:34.055Z,93579.97
2018-03-20T01:09:00.988Z,93579.97
2018-03-20T01:11:27.967Z,93587.47
2018-03-20T01:13:54.853Z,93593.96
2018-03-20T01:16:21.784Z,93597.75
2018-03-20T01:18:48.725Z,93599.49
2018-03-20T01:21:15.650Z,93601.00
2018-03-20T01:23:42.582Z,93599.66
2018-03-20T01:26:09.510Z,93601.00
2018-03-20T01:28:36.443Z,93602.92
2018-03-20T01:31:03.451Z,93611.55
2018-03-20T01:33:30.377Z,93620.16
2018-03-20T01:35:57.305Z,93615.73
2018-03-20T01:38:24.236Z,93620.87
2018-03-20T01:40:51.165Z,93629.72
2018-03-20T01:43:18.090Z,93626.83
2018-03-20T01:45:45.016Z,93632.59
2018-03-20T01:48:11.968Z,93634.09
2018-03-20T01:50:38.890Z,93637.97
2018-03-20T01:53:05.815Z,93632.36
2018-03-20T01:55:32.747Z,93634.49
2018-03-20T01:57:59.679Z,93630.07
2018-03-20T02:00:26.633Z,93630.23
2018-03-20T02:02:53.562Z,93633.31
2018-03-20T02:05:20.487Z,93631.80
2018-03-20T02:07:47.415Z,93630.78
2018-03-20T02:10:14.346Z,93637.50
2018-03-20T02:12:41.286Z,93634.66
2018-03-20T02:15:08.218Z,93635.95
2018-03-20T02:17:35.181Z,93640.54
2018-03-20T02:20:02.102Z,93641.72
2018-03-20T02:22:29.027Z,93641.33
2018-03-20T02:24:55.954Z,93636.51
2018-03-20T02:27:22.887Z,93639.36
2018-03-20T02:29:49.814Z,93640.30
2018-03-20T02:32:16.742Z,93642.05
2018-03-20T02:34:43.666Z,93642.59
2018-03-20T02:37:10.597Z,93649.50
2018-03-20T02:39:37.524Z,93644.13
2018-03-20T02:42:04.472Z,93644.52
2018-03-20T02:44:31.402Z,93646.98
2018-03-20T02:46:58.321Z,93636.95
2018-03-20T02:49:25.254Z,93642.00
2018-03-20T02:51:52.179Z,93643.89
2018-03-20T02:54:19.107Z,93650.22
2018-03-20T02:56:46.033Z,93648.88
2018-03-20T02:59:12.990Z,93645.01
2018-03-20T03:01:39.918Z,93645.01
2018-03-20T03:04:06.849Z,93644.25
2018-03-20T03:06:33.803Z,93646.35
2018-03-20T03:09:00.720Z,93648.48
2018-03-20T03:11:27.640Z,93649.78
2018-03-20T03:13:54.567Z,93655.36
2018-03-20T03:16:21.484Z,93648.64
2018-03-20T03:18:48.435Z,93650.38
2018-03-20T03:21:15.358Z,93652.35
2018-03-20T03:23:42.282Z,93656.89
2018-03-20T03:26:09.219Z,93659.73
2018-03-20T03:28:36.139Z,93661.08
2018-03-20T03:31:03.092Z,93664.88
2018-03-20T03:33:30.017Z,93659.11
2018-03-20T03:35:56.970Z,93660.09
2018-03-20T03:38:23.866Z,93661.80
2018-03-20T03:40:50.783Z,93664.11
2018-03-20T03:43:17.709Z,93664.28
2018-03-20T03:45:44.629Z,93671.31
2018-03-20T03:48:11.588Z,93676.28
2018-03-20T03:50:38.552Z,93668.63
2018-03-20T03:53:05.468Z,93669.21
2018-03-20T03:55:32.388Z,93677.82
2018-03-20T03:57:59.314Z,93673.79
2018-03-20T04:00:26.273Z,93673.00
2018-03-20T04:02:53.198Z,93677.82
2018-03-20T04:05:20.115Z,93679.48
2018-03-20T04:07:47.041Z,93679.09
2018-03-20T04:10:13.957Z,93685.80
2018-03-20T04:12:40.903Z,93690.86
2018-03-20T04:15:07.815Z,93690.86
2018-03-20T04:17:34.872Z,93695.09
2018-03-20T04:20:01.894Z,93692.59
2018-03-20T04:22:28.809Z,93695.83
2018-03-20T04:24:55.736Z,93698.13
2018-03-20T04:27:22.662Z,93705.39
2018-03-20T04:29:49.611Z,93707.48
2018-03-20T04:32:16.538Z,93711.91
2018-03-20T04:34:43.471Z,93718.94
2018-03-20T04:37:10.403Z,93719.72
2018-03-20T04:39:37.332Z,93724.09
2018-03-20T04:42:04.279Z,93731.02
2018-03-20T04:44:31.197Z,93732.16
2018-03-20T04:46:58.122Z,93747.09
2018-03-20T04:49:25.047Z,93745.58
2018-03-20T04:51:51.961Z,93751.91
2018-03-20T04:54:18.880Z,93758.03
2018-03-20T04:56:45.933Z,93766.44
2018-03-20T04:59:12.935Z,93770.62
2018-03-20T05:01:39.811Z,93771.97
2018-03-20T05:04:06.733Z,93770.97
2018-03-20T05:06:33.685Z,93766.78
2018-03-20T05:09:00.608Z,93776.55
2018-03-20T05:11:27.531Z,93769.62
2018-03-20T05:13:54.460Z,93773.66
2018-03-20T05:16:21.377Z,93778.23
2018-03-20T05:18:48.392Z,93784.40
2018-03-20T05:21:33.571Z,93783.06
2018-03-20T05:24:00.504Z,93794.51
2018-03-20T05:26:27.432Z,93796.09
2018-03-20T05:28:54.373Z,93794.59
2018-03-20T05:31:21.282Z,93797.67
2018-03-20T05:33:48.206Z,93805.88
2018-03-20T05:36:15.139Z,93812.20
2018-03-20T05:38:42.083Z,93811.65
2018-03-20T05:41:09.007Z,93811.65
2018-03-20T05:43:35.935Z,93818.17
2018-03-20T05:46:02.871Z,93817.58
2018-03-20T05:48:39.107Z,93813.55
2018-03-20T05:51:23.866Z,93825.08
2018-03-20T05:53:50.824Z,93823.94
2018-03-20T05:56:17.739Z,93820.70
2018-03-20T05:58:44.651Z,93820.55
2018-03-20T06:01:11.570Z,93820.78
2018-03-20T06:03:38.474Z,93831.34
2018-03-20T06:06:05.416Z,93834.26
2018-03-20T06:08:32.331Z,93826.80
2018-03-20T06:10:59.244Z,93832.25
2018-03-20T06:13:26.163Z,93837.17
2018-03-20T06:15:53.078Z,93843.11
2018-03-20T06:18:19.995Z,93848.61
2018-03-20T06:20:46.915Z,93855.34
2018-03-20T06:23:13.848Z,93851.67
2018-03-20T06:25:40.763Z,93857.02
2018-03-20T06:28:07.672Z,93871.63
2018-03-20T06:30:34.618Z,93868.88
2018-03-20T06:33:01.536Z,93874.38
2018-03-20T06:35:28.442Z,93864.85
2018-03-20T06:37:55.360Z,93861.56
2018-03-20T06:40:22.277Z,93874.67
2018-03-20T06:42:49.191Z,93881.83
2018-03-20T06:45:16.096Z,93888.10
2018-03-20T06:47:43.033Z,93896.33
2018-03-20T06:50:09.947Z,93888.27
2018-03-20T06:52:36.858Z,93895.22
2018-03-20T06:55:03.776Z,93909.45
2018-03-20T06:57:30.685Z,93912.85
2018-03-20T06:59:57.602Z,93910.52
2018-03-20T07:02:24.515Z,93916.95
2018-03-20T07:04:51.430Z,93910.94
2018-03-20T07:07:18.370Z,93914.02
2018-03-20T07:09:45.285Z,93908.64
2018-03-20T07:12:12.191Z,93905.89
2018-03-20T07:14:39.107Z,93915.81
2018-03-20T07:17:06.024Z,93916.76
2018-03-20T07:19:32.945Z,93912.33
2018-03-20T07:21:59.859Z,93910.32
2018-03-20T07:24:26.827Z,93912.85
2018-03-20T07:26:53.704Z,93911.34
2018-03-20T07:29:20.624Z,93910.72
2018-03-20T07:31:47.542Z,93916.93
2018-03-20T07:34:14.455Z,93922.38
2018-03-20T07:36:41.420Z,93912.87
2018-03-20T07:39:08.290Z,93918.48
2018-03-20T07:41:35.240Z,93920.84
2018-03-20T07:44:02.154Z,93922.02
2018-03-20T07:46:29.072Z,93923.75
2018-03-20T07:48:55.982Z,93937.88
2018-03-20T07:51:22.894Z,93940.20
2018-03-20T07:53:49.830Z,93942.47
2018-03-20T07:56:16.749Z,93949.63
2018-03-20T07:58:43.667Z,93962.30
2018-03-20T08:01:10.625Z,93961.91
2018-03-20T08:03:37.530Z,93952.21
2018-03-20T08:06:04.441Z,93951.02
2018-03-20T08:08:31.357Z,93957.58
2018-03-20T08:10:58.271Z,93967.03
2018-03-20T08:13:25.216Z,93968.88
2018-03-20T08:15:52.126Z,93958.39
2018-03-20T08:18:19.038Z,93961.20
2018-03-20T08:20:45.956Z,93963.73
2018-03-20T08:23:12.882Z,93962.27
2018-03-20T08:25:39.824Z,93953.77
2018-03-20T08:28:06.738Z,93957.95
2018-03-20T08:30:33.649Z,93954.94
2018-03-20T08:33:00.567Z,93967.64
2018-03-20T08:35:27.483Z,93969.24
2018-03-20T08:37:54.416Z,93970.73
2018-03-20T08:40:21.343Z,93976.48
2018-03-20T08:42:48.254Z,93975.69
2018-03-20T08:45:15.201Z,93973.95
2018-03-20T08:47:42.094Z,93972.37
2018-03-20T08:50:09.034Z,93974.31
2018-03-20T08:52:35.977Z,93972.14
2018-03-20T08:55:02.867Z,93975.45
2018-03-20T08:57:29.780Z,93982.50
2018-03-20T08:59:56.694Z,93982.45
2018-03-20T09:02:23.684Z,93976.00
2018-03-20T09:04:50.611Z,93975.72
2018-03-20T09:07:17.520Z,93982.61
2018-03-20T09:09:44.448Z,93990.95
2018-03-20T09:12:11.370Z,93989.97
2018-03-20T09:14:38.305Z,93995.98
2018-03-20T09:17:05.214Z,93990.59
2018-03-20T09:19:32.129Z,93998.44
2018-03-20T09:21:59.057Z,93995.27
2018-03-20T09:24:26.040Z,93991.55
2018-03-20T09:26:52.973Z,93997.02
2018-03-20T09:29:19.852Z,93994.63
2018-03-20T09:31:46.765Z,94003.55
2018-03-20T09:34:13.691Z,94002.91
2018-03-20T09:36:40.603Z,94008.84
2018-03-20T09:39:07.542Z,94003.81
2018-03-20T09:41:34.462Z,94001.75
2018-03-20T09:44:01.386Z,93998.67
2018-03-20T09:46:28.313Z,94003.81
2018-03-20T09:48:55.226Z,94006.59
2018-03-20T09:51:22.169Z,94003.97
2018-03-20T09:53:49.084Z,94007.77
2018-03-20T09:56:16.005Z,94015.69
2018-03-20T09:58:42.939Z,94012.00
2018-03-20T10:01:09.861Z,94015.99
2018-03-20T10:03:36.802Z,94025.52
2018-03-20T10:06:03.811Z,94025.36
2018-03-20T10:08:30.715Z,94034.09
2018-03-20T10:10:57.696Z,94033.06
2018-03-20T10:13:24.641Z,94033.86
2018-03-20T10:15:51.617Z,94038.58
2018-03-20T10:18:18.568Z,94033.77
2018-03-20T10:20:45.521Z,94038.72
2018-03-20T10:23:12.497Z,94037.12
2018-03-20T10:25:39.448Z,94042.27
2018-03-20T10:28:06.396Z,94033.05
2018-03-20T10:30:33.372Z,94043.06
2018-03-20T10:33:00.333Z,94036.97
2018-03-20T10:35:27.298Z,94045.70
2018-03-20T10:37:54.271Z,94051.29
2018-03-20T10:40:21.219Z,94054.31
2018-03-20T10:42:48.138Z,94059.92
2018-03-20T10:45:15.089Z,94044.36
2018-03-20T10:47:42.015Z,94047.72
2018-03-20T10:50:08.944Z,94065.05
2018-03-20T10:52:36.001Z,94056.91
2018-03-20T10:55:02.937Z,94058.77
2018-03-20T10:57:29.861Z,94063.48
2018-03-20T10:59:56.801Z,94071.31
2018-03-20T11:02:33.036Z,94068.42
2018-03-20T11:05:00.013Z,94066.88
2018-03-20T11:07:26.942Z,94063.24
2018-03-20T11:09:53.866Z,94065.03
2018-03-20T11:12:20.807Z,94063.24
2018-03-20T11:14:47.732Z,94055.74
2018-03-20T11:17:14.685Z,94057.64
2018-03-20T11:19:41.608Z,94056.44
2018-03-20T11:22:08.536Z,94058.27
2018-03-20T11:24:35.613Z,94069.69
2018-03-20T11:27:02.508Z,94066.31
2018-03-20T11:29:29.448Z,94063.80
2018-03-20T11:31:56.378Z,94065.03
2018-03-20T11:34:23.297Z,94058.31
2018-03-20T11:36:50.265Z,94067.84
2018-03-20T11:39:17.204Z,94075.16
2018-03-20T11:41:44.130Z,94063.70
2018-03-20T11:44:11.064Z,94060.22
2018-03-20T11:46:37.990Z,94067.07
2018-03-20T11:49:04.937Z,94061.25
2018-03-20T11:51:31.869Z,94067.72
2018-03-20T11:53:58.788Z,94072.22
2018-03-20T11:56:25.713Z,94069.37
2018-03-20T11:58:52.652Z,94063.47
2018-03-20T12:01:19.578Z,94056.99
2018-03-20T12:03:46.499Z,94054.00
2018-03-20T12:06:13.448Z,94063.80
2018-03-20T12:08:40.375Z,94064.58
2018-03-20T12:11:07.305Z,94064.02
2018-03-20T12:13:34.227Z,94070.94
2018-03-20T12:16:01.172Z,94071.49
2018-03-20T12:18:28.102Z,94081.97
2018-03-20T12:20:55.022Z,94082.47
2018-03-20T12:23:21.978Z,94081.73
2018-03-20T12:25:48.897Z,94095.13
2018-03-20T12:28:15.823Z,94095.61
2018-03-20T12:30:42.748Z,94107.08
2018-03-20T12:33:09.667Z,94111.94
2018-03-20T12:35:36.610Z,94118.22
2018-03-20T12:38:03.545Z,94125.50
2018-03-20T12:40:30.455Z,94118.11
2018-03-20T12:42:57.370Z,94126.53
2018-03-20T12:45:24.288Z,94118.85
2018-03-20T12:47:51.230Z,94119.30
2018-03-20T12:50:18.144Z,94117.50
2018-03-20T12:52:45.058Z,94119.43
2018-03-20T12:55:11.989Z,94112.70
2018-03-20T12:57:38.909Z,94106.84
2018-03-20T13:00:06.345Z,94116.11
2018-03-20T13:02:33.262Z,94108.87
2018-03-20T13:05:00.181Z,94116.20
2018-03-20T13:07:27.112Z,94119.38
2018-03-20T13:09:54.028Z,94118.98
2018-03-20T13:12:20.948Z,94115.41
2018-03-20T13:14:47.876Z,94113.86
2018-03-20T13:17:14.815Z,94107.30
2018-03-20T13:19:41.738Z,94109.19
2018-03-20T13:22:08.847Z,94110.94
2018-03-20T13:24:35.714Z,94111.17
2018-03-20T13:27:02.644Z,94114.41
2018-03-20T13:29:29.628Z,94110.84
2018-03-20T13:31:56.506Z,94114.28
2018-03-20T13:34:23.428Z,94117.14
2018-03-20T13:36:50.366Z,94125.59
2018-03-20T13:39:17.297Z,94125.02
2018-03-20T13:41:44.222Z,94123.78
2018-03-20T13:44:11.131Z,94119.44
2018-03-20T13:46:38.049Z,94125.47
2018-03-20T13:49:05.005Z,94127.08
2018-03-20T13:51:31.893Z,94133.04
2018-03-20T13:53:58.823Z,94138.84
2018-03-20T13:56:25.745Z,94142.54
2018-03-20T13:58:52.666Z,94139.61
2018-03-20T14:01:19.584Z,94141.83
2018-03-20T14:03:46.502Z,94136.55
2018-03-20T14:06:13.472Z,94124.37
2018-03-20T14:08:40.396Z,94130.70
2018-03-20T14:11:07.306Z,94138.22
2018-03-20T14:13:34.227Z,94143.38
2018-03-20T14:16:01.143Z,94144.73
2018-03-20T14:18:28.069Z,94143.98
2018-03-20T14:20:54.990Z,94140.01
2018-03-20T14:23:21.978Z,94148.52
2018-03-20T14:25:48.859Z,94159.78
2018-03-20T14:28:15.780Z,94171.12
2018-03-20T14:30:42.697Z,94167.59
2018-03-20T14:33:09.618Z,94154.14
2018-03-20T14:35:36.541Z,94158.52
2018-03-20T14:38:03.467Z,94145.17
2018-03-20T14:40:30.389Z,94153.16
2018-03-20T14:42:57.313Z,94172.66
2018-03-20T14:45:24.226Z,94176.20
2018-03-20T14:47:51.148Z,94170.73
2018-03-20T14:50:18.070Z,94177.35
2018-03-20T14:52:44.990Z,94175.08
2018-03-20T14:55:11.933Z,94174.50
2018-03-20T14:57:38.861Z,94170.96
2018-03-20T15:00:05.776Z,94184.50
2018-03-20T15:02:32.701Z,94174.58
2018-03-20T15:04:59.624Z,94172.50
2018-03-20T15:07:26.548Z,94182.75
2018-03-20T15:09:53.462Z,94178.53
2018-03-20T15:12:20.437Z,94176.70
2018-03-20T15:14:47.337Z,94184.82
2018-03-20T15:17:14.257Z,94192.87
2018-03-20T15:19:41.181Z,94194.73
2018-03-20T15:22:08.101Z,94200.46
2018-03-20T15:24:35.025Z,94211.48
2018-03-20T15:27:01.949Z,94197.34
2018-03-20T15:29:28.908Z,94195.94
2018-03-20T15:31:55.841Z,94196.98
2018-03-20T15:34:22.765Z,94200.96
2018-03-20T15:36:49.689Z,94207.63
2018-03-20T15:39:16.612Z,94208.87
2018-03-20T15:41:43.556Z,94204.34
2018-03-20T15:44:10.477Z,94197.38
2018-03-20T15:46:37.396Z,94204.09
2018-03-20T15:49:04.325Z,94205.20
2018-03-20T15:51:31.266Z,94213.06
2018-03-20T15:53:58.192Z,94215.87
2018-03-20T15:56:25.121Z,94210.55
2018-03-20T15:58:52.083Z,94202.80
2018-03-20T16:01:19.004Z,94210.33
2018-03-20T16:03:45.972Z,94207.52
2018-03-20T16:06:12.881Z,94214.16
2018-03-20T16:08:39.803Z,94234.73
2018-03-20T16:11:06.728Z,94238.77
2018-03-20T16:13:33.653Z,94239.66
2018-03-20T16:16:00.577Z,94239.06
2018-03-20T16:18:27.500Z,94246.59
2018-03-20T16:20:54.420Z,94251.02
2018-03-20T16:23:21.343Z,94244.64
2018-03-20T16:25:48.258Z,94266.41
2018-03-20T16:28:15.208Z,94262.67
2018-03-20T16:30:42.128Z,94275.91
2018-03-20T16:33:09.043Z,94281.38
2018-03-20T16:35:35.987Z,94294.19
2018-03-20T16:38:02.907Z,94302.25
2018-03-20T16:40:29.837Z,94310.86
2018-03-20T16:42:56.768Z,94303.44
2018-03-20T16:45:23.681Z,94300.37
2018-03-20T16:47:50.599Z,94301.27
2018-03-20T16:50:17.516Z,94301.41
2018-03-20T16:52:44.458Z,94305.84
2018-03-20T16:55:11.376Z,94311.56
2018-03-20T16:57:38.296Z,94306.09
2018-03-20T17:00:06.216Z,94316.08
2018-03-20T17:02:33.131Z,94317.45
2018-03-20T17:05:00.047Z,94317.95
2018-03-20T17:07:26.964Z,94322.64
2018-03-20T17:09:53.879Z,94337.31
2018-03-20T17:12:20.801Z,94337.06
2018-03-20T17:14:47.723Z,94342.45
2018-03-20T17:17:14.647Z,94341.86
2018-03-20T17:19:41.564Z,94351.23
2018-03-20T17:22:10.038Z,94354.69
2018-03-20T17:24:37.884Z,94353.20
2018-03-20T17:27:04.767Z,94359.06
2018-03-20T17:29:31.687Z,94370.16
2018-03-20T17:31:58.606Z,94374.89
2018-03-20T17:34:26.477Z,94376.94
2018-03-20T17:36:53.342Z,94372.35
2018-03-20T17:39:20.255Z,94386.77
2018-03-20T17:41:47.166Z,94396.07
2018-03-20T17:44:14.091Z,94399.49
2018-03-20T17:46:41.014Z,94404.23
2018-03-20T17:49:07.928Z,94410.25
2018-03-20T17:51:34.853Z,94406.95
2018-03-20T17:54:01.780Z,94397.23
2018-03-20T17:56:28.696Z,94402.84
2018-03-20T17:58:55.646Z,94398.11
2018-03-20T18:01:22.561Z,94406.83
2018-03-20T18:03:49.483Z,94410.34
2018-03-20T18:06:16.411Z,94403.71
2018-03-20T18:08:43.820Z,94410.34
2018-03-20T18:11:10.678Z,94413.66
2018-03-20T18:13:37.593Z,94423.84
2018-03-20T18:16:04.530Z,94425.31
2018-03-20T18:18:31.454Z,94426.59
2018-03-20T18:20:58.371Z,94424.55
2018-03-20T18:23:27.591Z,94433.89
2018-03-20T18:25:54.539Z,94428.83
2018-03-20T18:28:21.507Z,94433.04
2018-03-20T18:30:48.551Z,94428.05
2018-03-20T18:33:15.473Z,94432.25
2018-03-20T18:35:42.404Z,94431.55
2018-03-20T18:38:09.343Z,94433.31
2018-03-20T18:40:36.287Z,94442.17
2018-03-20T18:43:03.232Z,94443.86
2018-03-20T18:45:30.162Z,94435.33
2018-03-20T18:47:57.078Z,94435.23
2018-03-20T18:50:24.018Z,94428.64
2018-03-20T18:52:50.975Z,94436.33
2018-03-20T18:55:17.905Z,94452.47
2018-03-20T18:57:44.824Z,94465.81
2018-03-20T19:00:11.788Z,94468.03
2018-03-20T19:02:38.711Z,94470.14
2018-03-20T19:05:05.629Z,94469.56
2018-03-20T19:07:32.556Z,94468.00
2018-03-20T19:09:59.472Z,94468.55
2018-03-20T19:12:26.419Z,94468.73
2018-03-20T19:14:53.396Z,94467.20
2018-03-20T19:17:20.372Z,94471.97
2018-03-20T19:19:47.312Z,94479.70
2018-03-20T19:22:14.259Z,94491.28
2018-03-20T19:24:41.226Z,94498.01
2018-03-20T19:27:08.167Z,94507.91
2018-03-20T19:29:35.110Z,94513.67
2018-03-20T19:32:02.116Z,94504.20
2018-03-20T19:34:29.030Z,94510.34
2018-03-20T19:36:56.038Z,94512.81
2018-03-20T19:39:22.978Z,94508.13
2018-03-20T19:41:49.903Z,94510.51
2018-03-20T19:44:19.900Z,94502.69
2018-03-20T19:46:46.821Z,94498.48
2018-03-20T19:49:13.755Z,94505.36
2018-03-20T19:51:40.659Z,94511.63
2018-03-20T19:54:07.589Z,94520.73
2018-03-20T19:56:34.500Z,94524.12
2018-03-20T19:59:01.448Z,94522.69
2018-03-20T20:01:28.363Z,94530.37
2018-03-20T20:03:55.278Z,94539.07
2018-03-20T20:06:22.224Z,94538.27
2018-03-20T20:08:49.143Z,94551.97
2018-03-20T20:11:16.057Z,94547.62
2018-03-20T20:13:42.979Z,94539.53
2018-03-20T20:16:09.893Z,94536.14
2018-03-20T20:18:36.828Z,94531.16
2018-03-20T20:21:03.748Z,94538.63
2018-03-20T20:23:30.671Z,94540.27
2018-03-20T20:25:57.595Z,94551.14
2018-03-20T20:28:24.543Z,94547.48
2018-03-20T20:30:51.464Z,94544.97
2018-03-20T20:33:18.379Z,94545.06
2018-03-20T20:35:45.332Z,94547.29
2018-03-20T20:38:12.220Z,94557.25
2018-03-20T20:40:39.134Z,94552.60
2018-03-20T20:43:06.078Z,94542.39
2018-03-20T20:45:32.999Z,94533.69
2018-03-20T20:47:59.928Z,94536.70
2018-03-20T20:50:26.870Z,94546.66
2018-03-20T20:52:53.779Z,94560.81
2018-03-20T20:55:20.724Z,94556.23
2018-03-20T21:00:21.312Z,94553.42
2018-03-20T21:02:48.252Z,94552.94
2018-03-20T21:05:15.164Z,94560.00
2018-03-20T21:07:42.090Z,94564.41
2018-03-20T21:10:09.018Z,94555.79
2018-03-20T21:13:15.363Z,94556.97
2018-03-20T21:15:42.281Z,94559.81
2018-03-20T21:18:09.226Z,94568.83
2018-03-20T21:20:36.143Z,94564.16
2018-03-20T21:23:03.059Z,94566.08
2018-03-20T21:25:29.984Z,94562.42
2018-03-20T21:27:57.039Z,94562.73
2018-03-20T21:30:23.901Z,94561.78
2018-03-20T21:32:50.822Z,94570.02
2018-03-20T21:35:17.748Z,94570.26
2018-03-20T21:37:44.667Z,94575.55
2018-03-20T21:40:11.583Z,94568.44
2018-03-20T21:42:38.550Z,94571.67
2018-03-20T21:45:05.465Z,94575.31
2018-03-20T21:47:32.390Z,94571.91
2018-03-20T21:49:59.310Z,94578.22
2018-03-20T21:52:26.260Z,94575.39
2018-03-20T21:54:53.179Z,94575.94
2018-03-20T21:57:20.101Z,94590.57
2018-03-20T21:59:47.018Z,94587.00
2018-03-20T22:02:13.931Z,94589.94
2018-03-20T22:04:40.853Z,94593.42
2018-03-20T22:07:07.770Z,94594.91
2018-03-20T22:09:34.686Z,94598.95
2018-03-20T22:12:01.631Z,94596.26
2018-03-20T22:14:28.552Z,94602.58
2018-03-20T22:16:55.474Z,94599.28
2018-03-20T22:19:22.395Z,94601.78
2018-03-20T22:21:49.343Z,94602.91
2018-03-20T22:24:16.239Z,94608.84
2018-03-20T22:26:43.154Z,94608.50
2018-03-20T22:29:10.101Z,94598.63
2018-03-20T22:31:37.014Z,94594.43
2018-03-20T22:34:03.926Z,94593.27
2018-03-20T22:36:30.846Z,94597.45
2018-03-20T22:38:57.760Z,94596.80
2018-03-20T22:41:24.681Z,94591.61
2018-03-20T22:43:51.600Z,94595.39
2018-03-20T22:46:18.513Z,94599.17
2018-03-20T22:48:45.434Z,94591.29
2018-03-20T22:51:12.360Z,94594.53
2018-03-20T22:53:39.283Z,94589.32
2018-03-20T22:56:06.200Z,94590.97
2018-03-20T22:58:33.118Z,94601.64
2018-03-20T23:01:00.033Z,94595.14
2018-03-20T23:03:26.948Z,94598.41
2018-03-20T23:05:53.919Z,94601.46
2018-03-20T23:08:20.787Z,94597.44
2018-03-20T23:10:47.731Z,94600.70
2018-03-20T23:13:14.642Z,94610.50
2018-03-20T23:15:41.565Z,94615.15
2018-03-20T23:18:08.498Z,94617.84
2018-03-20T23:20:35.406Z,94619.50
2018-03-20T23:23:02.327Z,94612.16
2018-03-20T23:25:29.241Z,94620.23
2018-03-20T23:27:56.164Z,94628.91
2018-03-20T23:30:23.074Z,94641.95
2018-03-20T23:32:49.995Z,94642.49
2018-03-20T23:35:16.939Z,94633.48
2018-03-20T23:37:43.858Z,94640.38
2018-03-20T23:40:10.769Z,94658.80
2018-03-20T23:42:37.689Z,94645.11
2018-03-20T23:45:04.613Z,94643.37
2018-03-20T23:47:31.529Z,94636.02
2018-03-20T23:49:58.442Z,94623.13
2018-03-20T23:52:25.389Z,94636.90
2018-03-20T23:54:52.303Z,94646.86
2018-03-20T23:57:19.223Z,94648.50
2018-03-20T23:59:46.138Z,94641.02
